Terminal Aerodrome Forecast
Issued by NWS

Home | Current Version | Previous Version | Text Only | Print | Product List | Glossary On
Versions: 1 2 3 4 5 6 7 8 9 10 11 12 13 14
448
FTUS43 KDVN 202320
TAFBRL
TAF
KBRL 202320Z 2100/2124 09003KT P6SM SCT250
     FM211500 11009KT P6SM BKN150=

USA.gov is the U.S. government's official web portal to all federal, state and local government web resources and services.